This is the latest recevied weather packets stored in our database for station/object VK3ABC-13. If no packets are shown the sender has not sent any weather packets the latest 10 day(s).
| Time | Temp. | Humidity | Pressure | Rain* | Wind** | Luminosity | Snow |
|---|---|---|---|---|---|---|---|
| 1777598415 | 26.11° C | 43% | 1021.3 hPa | 0 mm | - | 504 W/m² | - |
| 1777594514 | 25° C | 46% | 1021.4 hPa | 0 mm | - | 429 W/m² | - |
| 1777593915 | 25° C | 47% | 1021.4 hPa | 0 mm | - | 424 W/m² | - |
| 1777592414 | 23.89° C | 49% | 1021.5 hPa | 0 mm | - | 397 W/m² | - |
| 1777591816 | 23.89° C | 49% | 1021.4 hPa | 0 mm | - | 383 W/m² | - |
| 1777588815 | 15.56° C | 88% | 1021.7 hPa | 0 mm | - | 311 W/m² | - |
| 1777587913 | 13.33° C | 92% | 1021.7 hPa | 0 mm | - | 116 W/m² | - |
| 1777586415 | 11.67° C | 91% | 1021.7 hPa | 0 mm | - | 69 W/m² | - |
| 1777581614 | 10.56° C | 89% | 1021.4 hPa | 0 mm | - | 0 W/m² | - |
| 1777581014 | 10.56° C | 89% | 1021.3 hPa | 0 mm | - | 0 W/m² | - |
| 1777579513 | 10.56° C | 89% | 1021.1 hPa | 0 mm | - | 0 W/m² | - |
| 1777579215 | 10.56° C | 89% | 1021.1 hPa | 0 mm | - | 0 W/m² | - |
| 1777578314 | 10.56° C | 89% | 1020.9 hPa | 0 mm | - | 0 W/m² | - |
| 1777576215 | 10.56° C | 88% | 1020.8 hPa | 0 mm | - | 0 W/m² | - |
| 1777575615 | 10.56° C | 88% | 1020.7 hPa | 0 mm | - | 0 W/m² | - |
| 1777575014 | 10.56° C | 88% | 1020.6 hPa | 0 mm | - | 0 W/m² | - |
| 1777572913 | 10.56° C | 87% | 1020.4 hPa | 0 mm | - | 0 W/m² | - |
| 1777572313 | 10.56° C | 87% | 1020.4 hPa | 0 mm | - | 0 W/m² | - |
| 1777571713 | 10.56° C | 86% | 1020.5 hPa | 0 mm | - | 0 W/m² | - |
| 1777570216 | 11.11° C | 86% | 1020.5 hPa | 0 mm | - | 0 W/m² | - |
| 1777566614 | 11.67° C | 85% | 1020.9 hPa | 0 mm | - | 0 W/m² | - |
| 1777565415 | 12.22° C | 84% | 1021 hPa | 0 mm | - | 0 W/m² | - |
| 1777564514 | 12.22° C | 84% | 1021.1 hPa | 0 mm | - | 0 W/m² | - |
| 1777563015 | 12.22° C | 83% | 1021.1 hPa | 0 mm | - | 0 W/m² | - |
| 1777562714 | 12.22° C | 82% | 1021.1 hPa | 0 mm | - | 0 W/m² | - |
* Rain latest hour (hover to see other rain measurements)
** Current wind speed in m/s (hover to see current wind gust speed)